メインページ
METAR-TAF:

METAR-TAF

空港 :

ラアス・アル=ハイマ国際空港

ラアス・アル=ハイマ, アラブ首長国連邦

緯度: 25-37N, 経度: 055-56E, 海抜: 31m

現時点の気象観測

当レポートは1時間9分前の16:00(UTC)に作成
西/南西の風 5kt
気温 33°C
湿度 67%
気圧 1007 hPa
視程: 6000m

METAR: OMRK 251600Z 25005KT 6000 NSC 33/26 Q1006 A2973

時間: 21:09 (17:09 UTC)

予報

当レポートは6時間9分前の11:00(UTC)に作成
予報は25日の 12時(UTC)から 26日の 18時(UTC)まで有効
西の風 13kt
視程: 8000m
25日の 14時(UTC)から 25日の 16時(UTC)まで徐々に
南/南東の風 5kt
26日の 07時(UTC)から 26日の 09時(UTC)まで徐々に
北西の風 15kt
26日の 15時(UTC)から 26日の 17時(UTC)まで徐々に
南/南東の風 5kt

TAF: OMRK 251100Z 2512/2618 27013KT 8000 NSC BECMG 2514/2516 16005KT BECMG 2607/2609 31015KT BECMG 2615/2617 16005KT

4,000以上の空港の気象観測と天気予報(METAR報とTAF報)

利用可能な観測所は地図上に黄色い丸と赤い丸で示す。

丸の上にカーソルを重ねると観測所名を参照できる。

次にクリックすると気象観測と天気予報を参照できる。

マップの切り替え:黒色「×」印の緑ボタンをクリックして拡大、「-」印の緑ボタンをクリックして縮小、緑色の三角印をクリックして隣りの地図に切り替え


METAR-TAF: